Weather History for Kenai, AK

Change the Weather History Date:

Sunday, October 16, 2011

  Actual Average Record
Temperature  
Mean Temperature 40 °F -  
Max Temperature 41 °F 42 °F 54 °F (1972)
Min Temperature 35 °F 28 °F 0 °F (1996)
Degree Days  
Heating Degree Days 26    
Moisture  
Dew Point 39 °F    
Average Humidity 97    
Maximum Humidity 100    
Minimum Humidity 93    
Precipitation  
Precipitation 0.13 in - - ()
Sea Level Pressure  
Sea Level Pressure 29.68 in    
Wind  
Wind Speed 6 mph (North)    
Max Wind Speed 12 mph    
Max Gust Speed -    
Visibility 8 miles    
Events Rain    
Averages and records for this station are not official NWS values.
T = Trace of Precipitation, MM = Missing Value Source: NWS Daily Summary

Daily Weather History Graph

Daily Weather History Graph

Search for Another Location

Airport:

Trip Planner

Search our weather history database for the weather conditions in past years. The results will help you decide how hot, cold, wet, or windy it might be!

Date:

Astronomy

Oct. 16, 2011 Rise Set
Actual Time 8:48 AM AKDT 6:51 PM AKDT
Civil Twilight 8:04 AM AKDT 7:34 PM AKDT
Nautical Twilight 7:15 AM AKDT 8:23 PM AKDT
Astronomical Twilight 6:26 AM AKDT 9:12 PM AKDT
Moon 8:26 PM AKDT (10/16) 2:34 PM AKDT (10/16)
Length of Visible Light 11h 29m
Length of Day
10h 03m
Waning Gibbous, 81% of the Moon is Illuminated
Oct 16
Waning Gibbous
Oct 19
Last Quarter
Oct 26
New
Nov 2
First Quarter
Nov 10
Full

Hourly Weather History & Observations

Time (AKDT) Temp. Windchill Dew Point Humidity Pressure Visibility Wind Dir Wind Speed Gust Speed Precip Events Conditions
12:06 AM 42.8 °F 38.6 °F 41.0 °F 93% 29.61 in 6.0 mi NNW 6.9 mph - N/A   Overcast
12:17 AM 41.0 °F 36.4 °F 41.0 °F 100% 29.61 in 5.0 mi North 6.9 mph - 0.01 in   Overcast
12:42 AM 41.0 °F - 41.0 °F 100% 29.61 in 10.0 mi Calm Calm - 0.01 in   Overcast
12:53 AM 41.0 °F - 41.0 °F 100% 29.62 in 10.0 mi Calm Calm - 0.01 in   Overcast
1:11 AM 41.0 °F - 39.2 °F 93% 29.61 in 10.0 mi Calm Calm - N/A   Overcast
1:34 AM 41.0 °F - 39.2 °F 93% 29.62 in 10.0 mi Calm Calm - N/A   Overcast
1:46 AM 41.0 °F 38.0 °F 39.2 °F 93% 29.62 in 10.0 mi North 4.6 mph - N/A   Overcast
1:53 AM 41.0 °F 38.0 °F 39.9 °F 96% 29.63 in 10.0 mi North 4.6 mph - N/A   Overcast
2:02 AM 41.0 °F 38.0 °F 39.2 °F 93% 29.62 in 10.0 mi NNW 4.6 mph - N/A   Overcast
2:53 AM 41.0 °F 37.1 °F 39.9 °F 96% 29.62 in 10.0 mi NNW 5.8 mph - N/A   Overcast
3:17 AM 41.0 °F 37.1 °F 41.0 °F 100% 29.62 in 10.0 mi NNW 5.8 mph - N/A   Overcast
3:53 AM 41.0 °F 37.1 °F 41.0 °F 100% 29.63 in 10.0 mi NNW 5.8 mph - N/A   Overcast
4:02 AM 41.0 °F 37.1 °F 41.0 °F 100% 29.62 in 8.0 mi NNW 5.8 mph - N/A   Overcast
4:23 AM 41.0 °F 37.1 °F 41.0 °F 100% 29.62 in 8.0 mi NNW 5.8 mph - N/A   Overcast
4:53 AM 41.0 °F 38.0 °F 41.0 °F 100% 29.63 in 10.0 mi NNW 4.6 mph - N/A   Overcast
5:16 AM 41.0 °F 37.1 °F 41.0 °F 100% 29.63 in 4.0 mi NNW 5.8 mph - 0.00 in Rain Light Rain
5:43 AM 39.2 °F 33.0 °F 39.2 °F 100% 29.63 in 7.0 mi North 9.2 mph - 0.01 in   Overcast
5:50 AM 41.0 °F 36.4 °F 39.2 °F 93% 29.62 in 10.0 mi North 6.9 mph - 0.01 in   Overcast
5:53 AM 39.9 °F 35.1 °F 39.0 °F 97% 29.63 in 10.0 mi North 6.9 mph - 0.01 in   Overcast
6:10 AM 41.0 °F 37.1 °F 39.2 °F 93% 29.62 in 10.0 mi North 5.8 mph - N/A   Overcast
6:41 AM 41.0 °F 37.1 °F 39.2 °F 93% 29.62 in 9.0 mi NNW 5.8 mph - N/A   Overcast
6:50 AM 41.0 °F 36.4 °F 39.2 °F 93% 29.62 in 6.0 mi NNW 6.9 mph - N/A   Overcast
6:53 AM 41.0 °F 36.4 °F 39.9 °F 96% 29.63 in 5.0 mi NNW 6.9 mph - N/A   Overcast
7:21 AM 41.0 °F 35.8 °F 39.2 °F 93% 29.63 in 4.0 mi NNW 8.1 mph - N/A   Overcast
7:53 AM 39.9 °F 34.5 °F 39.9 °F 100% 29.63 in 3.0 mi NNW 8.1 mph - N/A   Overcast
8:53 AM 39.9 °F 33.9 °F 39.9 °F 100% 29.64 in 10.0 mi NNW 9.2 mph - N/A   Overcast
8:59 AM 39.2 °F 33.0 °F 39.2 °F 100% 29.63 in 10.0 mi NNW 9.2 mph - N/A   Overcast
9:53 AM 41.0 °F 35.2 °F 39.9 °F 96% 29.65 in 6.0 mi NNW 9.2 mph - N/A   Overcast
10:26 AM 39.2 °F 32.0 °F 39.2 °F 100% 29.65 in 1.8 mi NNW 11.5 mph - 0.00 in Rain Light Rain
10:53 AM 39.2 °F 32.5 °F 39.2 °F 100% 29.66 in 1.0 mi North 10.4 mph - N/A   Mist
11:30 AM 39.2 °F 33.6 °F 39.2 °F 100% 29.67 in 1.5 mi North 8.1 mph - 0.01 in   Overcast
11:38 AM 39.2 °F 32.5 °F 39.2 °F 100% 29.67 in 3.0 mi NNW 10.4 mph - 0.01 in Rain Light Rain
11:53 AM 39.9 °F 33.4 °F 39.9 °F 100% 29.68 in 2.0 mi North 10.4 mph - 0.02 in Rain Light Rain
12:07 PM 39.2 °F 33.0 °F 39.2 °F 100% 29.67 in 1.8 mi North 9.2 mph - 0.02 in Rain Light Rain
12:40 PM 39.2 °F 33.0 °F 39.2 °F 100% 29.67 in 2.5 mi North 9.2 mph - 0.05 in Rain Light Rain
12:48 PM 39.2 °F 32.5 °F 39.2 °F 100% 29.68 in 3.0 mi NNW 10.4 mph - 0.05 in Rain Light Rain
12:53 PM 39.9 °F 32.9 °F 39.0 °F 97% 29.69 in 3.0 mi North 11.5 mph - 0.05 in Rain Light Rain
1:53 PM 39.9 °F 33.4 °F 39.0 °F 97% 29.70 in 4.0 mi North 10.4 mph - 0.01 in   Overcast
2:53 PM 39.9 °F 34.5 °F 39.0 °F 97% 29.72 in 10.0 mi North 8.1 mph - N/A   Overcast
3:08 PM 39.2 °F 34.2 °F 39.2 °F 100% 29.71 in 8.0 mi North 6.9 mph - 0.00 in Rain Light Rain
3:13 PM 39.2 °F 34.2 °F 39.2 °F 100% 29.71 in 9.0 mi North 6.9 mph - 0.00 in Rain Light Rain
3:34 PM 39.2 °F 33.6 °F 39.2 °F 100% 29.71 in 6.0 mi North 8.1 mph - 0.00 in Rain Light Rain
3:43 PM 39.2 °F 34.2 °F 39.2 °F 100% 29.71 in 6.0 mi North 6.9 mph - 0.01 in Rain Light Rain
3:53 PM 39.9 °F 35.1 °F 39.0 °F 97% 29.72 in 7.0 mi North 6.9 mph - 0.01 in Rain Light Rain
4:02 PM 39.2 °F 35.0 °F 39.2 °F 100% 29.71 in 8.0 mi North 5.8 mph - 0.01 in Rain Light Rain
4:29 PM 41.0 °F 38.0 °F 39.2 °F 93% 29.71 in 9.0 mi NNW 4.6 mph - 0.01 in   Overcast
4:53 PM 39.9 °F 36.7 °F 37.9 °F 93% 29.73 in 5.0 mi NNE 4.6 mph - 0.02 in   Overcast
4:59 PM 39.2 °F 35.9 °F 37.4 °F 93% 29.72 in 10.0 mi NNE 4.6 mph - N/A   Overcast
5:53 PM 39.9 °F 36.7 °F 37.9 °F 93% 29.74 in 10.0 mi North 4.6 mph - N/A   Overcast
6:11 PM 39.2 °F 37.0 °F 39.2 °F 100% 29.73 in 10.0 mi North 3.5 mph - N/A   Overcast
6:26 PM 39.2 °F 35.0 °F 37.4 °F 93% 29.74 in 10.0 mi NNE 5.8 mph - N/A   Overcast
6:53 PM 39.0 °F 35.7 °F 37.0 °F 93% 29.75 in 10.0 mi NE 4.6 mph - N/A   Overcast
7:04 PM 39.2 °F 37.0 °F 37.4 °F 93% 29.75 in 10.0 mi ENE 3.5 mph - N/A   Overcast
7:28 PM 39.2 °F 37.0 °F 37.4 °F 93% 29.75 in 10.0 mi East 3.5 mph - N/A   Overcast
7:53 PM 39.0 °F 36.8 °F 37.9 °F 96% 29.77 in 10.0 mi ESE 3.5 mph - N/A   Overcast
8:53 PM 37.0 °F - 37.0 °F 100% 29.78 in 10.0 mi Calm Calm - N/A   Overcast
9:53 PM 37.9 °F - 37.0 °F 97% 29.80 in 10.0 mi Calm Calm - N/A   Overcast
10:12 PM 37.4 °F - 37.4 °F 100% 29.80 in 10.0 mi Calm Calm - N/A   Overcast
10:40 PM 37.4 °F - 37.4 °F 100% 29.80 in 10.0 mi Calm Calm - N/A   Overcast
10:53 PM 37.0 °F - 37.0 °F 100% 29.81 in 10.0 mi Calm Calm - N/A   Overcast
11:53 PM 35.1 °F - 35.1 °F 100% 29.83 in 8.0 mi Calm Calm - N/A   Overcast